createdAt,value
2019-05-17T00:03:33.051Z,12.67
2019-05-17T00:08:38.096Z,8.67
2019-05-17T00:13:39.398Z,10.37
2019-05-17T00:18:41.688Z,18.37
2019-05-17T00:23:44.012Z,7.83
2019-05-17T00:28:46.908Z,8.07
2019-05-17T00:33:49.524Z,10.70
2019-05-17T00:38:51.816Z,11.80
2019-05-17T00:43:54.091Z,7.80
2019-05-17T00:48:57.312Z,6.47
2019-05-17T00:53:59.846Z,8.63
2019-05-17T00:59:02.198Z,9.63
2019-05-17T01:04:06.665Z,8.10
2019-05-17T01:09:08.522Z,7.17
2019-05-17T01:14:10.807Z,16.30
2019-05-17T01:19:13.236Z,11.90
2019-05-17T01:24:17.291Z,7.93
2019-05-17T01:29:19.844Z,6.87
2019-05-17T01:34:22.188Z,9.57
2019-05-17T01:39:26.752Z,8.10
2019-05-17T01:44:28.520Z,10.43
2019-05-17T01:49:30.831Z,7.33
2019-05-17T01:54:33.178Z,10.05
2019-05-17T01:59:37.284Z,9.10
2019-05-17T02:04:39.690Z,8.53
2019-05-17T02:09:42.051Z,6.90
2019-05-17T02:14:46.663Z,6.47
2019-05-17T02:19:48.340Z,9.03
2019-05-17T02:24:50.622Z,12.82
2019-05-17T02:29:53.056Z,9.93
2019-05-17T02:34:55.338Z,11.13
2019-05-17T02:40:03.224Z,9.30
2019-05-17T02:45:03.046Z,10.20
2019-05-17T02:50:06.308Z,8.40
2019-05-17T02:55:08.764Z,7.33
2019-05-17T03:00:13.323Z,8.30
2019-05-17T03:05:15.384Z,8.00
2019-05-17T03:10:23.633Z,8.13
2019-05-17T03:15:23.330Z,8.28
2019-05-17T03:20:26.084Z,10.53
2019-05-17T03:25:28.404Z,9.43
2019-05-17T03:30:36.847Z,9.20
2019-05-17T03:35:37.309Z,13.07
2019-05-17T03:41:03.617Z,9.00
2019-05-17T03:45:43.183Z,10.97
2019-05-17T03:50:45.452Z,12.50
2019-05-17T03:55:47.724Z,10.80
2019-05-17T04:00:53.115Z,8.83
2019-05-17T04:05:53.977Z,10.57
2019-05-17T04:10:56.272Z,10.40
2019-05-17T04:15:58.674Z,10.73
2019-05-17T04:21:03.358Z,11.67
2019-05-17T04:26:04.977Z,10.57
2019-05-17T04:31:07.271Z,16.43
2019-05-17T04:36:12.900Z,11.73
2019-05-17T04:41:13.625Z,12.73
2019-05-17T04:46:16.039Z,12.17
2019-05-17T04:51:18.378Z,11.87
2019-05-17T04:56:22.682Z,13.07
2019-05-17T05:01:24.700Z,18.57
2019-05-17T05:06:26.979Z,14.30
2019-05-17T05:11:32.225Z,13.43
2019-05-17T05:16:33.315Z,13.73
2019-05-17T05:21:35.599Z,17.40
2019-05-17T05:26:37.873Z,15.26
2019-05-17T05:31:42.601Z,30.70
2019-05-17T05:36:44.175Z,17.98
2019-05-17T05:41:46.462Z,20.17
2019-05-17T05:46:51.390Z,16.57
2019-05-17T05:51:53.560Z,25.27
2019-05-17T05:56:55.841Z,21.57
2019-05-17T06:01:58.136Z,24.17
2019-05-17T06:07:02.748Z,23.30
2019-05-17T06:12:04.435Z,28.73
2019-05-17T06:17:06.721Z,28.83
2019-05-17T06:22:09.000Z,24.90
2019-05-17T06:27:12.366Z,20.10
2019-05-17T06:32:14.878Z,18.40
2019-05-17T06:37:17.321Z,20.23
2019-05-17T06:42:21.642Z,23.02
2019-05-17T06:47:23.867Z,20.15
2019-05-17T06:52:26.152Z,19.65
2019-05-17T06:57:28.430Z,22.07
2019-05-17T07:02:30.939Z,16.62
2019-05-17T07:07:33.327Z,21.00
2019-05-17T07:12:35.603Z,20.37
2019-05-17T07:17:40.040Z,16.40
2019-05-17T07:22:42.088Z,19.10
2019-05-17T07:27:45.827Z,15.83
2019-05-17T07:32:49.782Z,16.80
2019-05-17T07:37:52.337Z,17.15
2019-05-17T07:43:06.918Z,19.35
2019-05-17T07:48:00.148Z,19.85
2019-05-17T07:53:02.513Z,17.92
2019-05-17T07:58:04.772Z,22.07
2019-05-17T08:03:07.066Z,16.02
2019-05-17T08:08:09.899Z,15.53
2019-05-17T08:13:25.901Z,18.40
2019-05-17T08:18:16.950Z,16.40
2019-05-17T08:23:20.120Z,15.53
2019-05-17T08:28:22.761Z,15.37
2019-05-17T08:33:25.073Z,19.60
2019-05-17T08:38:27.753Z,16.23
2019-05-17T08:43:39.504Z,16.93
2019-05-17T08:48:34.115Z,18.52
2019-05-17T08:53:36.377Z,13.55
2019-05-17T08:58:40.385Z,20.27
2019-05-17T09:03:42.927Z,13.32
2019-05-17T09:08:45.214Z,13.80
2019-05-17T09:13:57.347Z,17.02
2019-05-17T09:18:51.681Z,15.88
2019-05-17T09:23:55.048Z,20.45
2019-05-17T09:28:57.515Z,14.60
2019-05-17T09:34:00.381Z,23.60
2019-05-17T09:39:03.279Z,13.60
2019-05-17T09:44:13.004Z,15.50
2019-05-17T09:49:10.437Z,16.77
2019-05-17T09:54:13.057Z,13.53
2019-05-17T09:59:15.361Z,14.60
2019-05-17T10:04:19.751Z,17.12
2019-05-17T10:09:22.046Z,13.58
2019-05-17T10:14:28.141Z,14.33
2019-05-17T10:19:29.437Z,12.80
2019-05-17T10:24:37.942Z,13.13
2019-05-17T10:29:36.049Z,17.45
2019-05-17T10:34:40.122Z,15.48
2019-05-17T10:39:42.329Z,11.88
2019-05-17T10:44:47.741Z,13.05
2019-05-17T10:49:49.646Z,15.15
2019-05-17T10:54:52.090Z,13.20
2019-05-17T10:59:54.367Z,10.65
2019-05-17T11:04:56.630Z,12.30
2019-05-17T11:10:00.314Z,9.23
2019-05-17T11:15:10.989Z,10.43
2019-05-17T11:20:09.511Z,11.22
2019-05-17T11:25:12.038Z,9.18
2019-05-17T11:30:14.422Z,9.15
2019-05-17T11:35:16.765Z,11.95
2019-05-17T11:40:19.403Z,9.20
2019-05-17T11:45:27.921Z,7.53
2019-05-17T11:50:25.854Z,7.90
2019-05-17T11:55:28.208Z,8.05
2019-05-17T12:00:30.680Z,8.90
2019-05-17T12:05:33.006Z,10.82
2019-05-17T12:10:35.651Z,9.30
2019-05-17T12:15:45.205Z,10.20
2019-05-17T12:20:49.370Z,9.17
2019-05-17T12:25:51.948Z,7.62
2019-05-17T12:30:54.300Z,9.95
2019-05-17T12:35:56.918Z,10.15
2019-05-17T12:40:59.226Z,8.30
2019-05-17T12:46:01.963Z,6.15
2019-05-17T12:51:04.526Z,6.33
2019-05-17T12:56:06.922Z,9.93
2019-05-17T13:01:09.302Z,7.97
2019-05-17T13:06:11.660Z,5.05
2019-05-17T13:11:14.096Z,8.18
2019-05-17T13:16:19.009Z,6.55
2019-05-17T13:21:20.697Z,5.45
2019-05-17T13:26:23.251Z,5.53
2019-05-17T13:31:25.575Z,5.08
2019-05-17T13:36:27.863Z,7.10
2019-05-17T13:41:30.177Z,6.10
2019-05-17T13:46:33.666Z,6.22
2019-05-17T13:51:36.497Z,6.20
2019-05-17T13:56:38.843Z,6.53
2019-05-17T14:01:41.135Z,6.83
2019-05-17T14:06:43.440Z,5.83
2019-05-17T14:11:46.412Z,4.72
2019-05-17T14:16:48.772Z,8.35
2019-05-17T14:21:51.049Z,7.35
2019-05-17T14:26:53.325Z,4.22
2019-05-17T14:31:55.630Z,5.10
2019-05-17T14:36:58.031Z,5.87
2019-05-17T14:42:00.380Z,7.15
2019-05-17T14:47:02.858Z,8.30
2019-05-17T14:52:05.132Z,5.70
2019-05-17T14:57:07.478Z,4.10
2019-05-17T15:02:09.871Z,6.55
2019-05-17T15:07:12.192Z,2.98
2019-05-17T15:12:27.227Z,4.67
2019-05-17T15:17:18.495Z,10.58
2019-05-17T15:22:20.820Z,4.55
2019-05-17T15:27:23.328Z,7.45
2019-05-17T15:32:25.648Z,4.85
2019-05-17T15:37:28.261Z,4.60
2019-05-17T15:42:43.189Z,5.17
2019-05-17T15:47:34.912Z,5.05
2019-05-17T15:52:38.162Z,8.20
2019-05-17T15:57:40.948Z,5.17
2019-05-17T16:02:43.720Z,6.35
2019-05-17T16:07:46.156Z,4.80
2019-05-17T16:13:01.662Z,2.85
2019-05-17T16:17:52.570Z,6.92
2019-05-17T16:22:54.871Z,4.12
2019-05-17T16:27:57.150Z,5.75
2019-05-17T16:32:59.467Z,3.22
2019-05-17T16:38:01.754Z,8.23
2019-05-17T16:43:17.031Z,6.97
2019-05-17T16:48:08.373Z,3.17
2019-05-17T16:53:10.717Z,2.47
2019-05-17T16:58:13.145Z,4.03
2019-05-17T17:03:15.437Z,4.12
2019-05-17T17:08:17.764Z,4.65
2019-05-17T17:13:32.438Z,4.22
2019-05-17T17:18:24.093Z,3.25
2019-05-17T17:23:37.487Z,3.08
2019-05-17T17:28:39.773Z,4.25
2019-05-17T17:33:42.077Z,6.28
2019-05-17T17:38:44.549Z,4.00
2019-05-17T17:43:57.862Z,4.83
2019-05-17T17:48:51.060Z,4.25
2019-05-17T17:53:53.698Z,4.65
2019-05-17T17:58:56.068Z,3.95
2019-05-17T18:03:58.359Z,3.70
2019-05-17T18:09:00.803Z,5.00
2019-05-17T18:14:13.001Z,4.30
2019-05-17T18:19:07.438Z,6.15
2019-05-17T18:24:09.742Z,3.90
2019-05-17T18:29:12.087Z,3.12
2019-05-17T18:34:14.377Z,3.12
2019-05-17T18:39:16.942Z,3.85
2019-05-17T18:44:27.065Z,3.83
2019-05-17T18:49:23.381Z,5.28
2019-05-17T18:54:25.744Z,3.27
2019-05-17T18:59:28.051Z,4.35
2019-05-17T19:04:30.514Z,3.72
2019-05-17T19:09:33.142Z,4.12
2019-05-17T19:14:43.131Z,2.90
2019-05-17T19:19:39.622Z,3.95
2019-05-17T19:24:41.954Z,4.22
2019-05-17T19:29:44.233Z,4.80
2019-05-17T19:34:46.669Z,4.03
2019-05-17T19:39:48.973Z,4.58
2019-05-17T19:44:59.162Z,6.77
2019-05-17T19:49:55.326Z,7.67
2019-05-17T19:54:57.651Z,4.22
2019-05-17T19:59:59.970Z,3.07
2019-05-17T20:05:02.303Z,5.40
2019-05-17T20:10:07.875Z,2.85
2019-05-17T20:15:17.282Z,5.77
2019-05-17T20:20:14.684Z,2.83
2019-05-17T20:25:17.267Z,4.97
2019-05-17T20:30:19.917Z,4.95
2019-05-17T20:35:22.208Z,5.80
2019-05-17T20:40:24.549Z,4.10
2019-05-17T20:45:33.285Z,3.35
2019-05-17T20:50:31.357Z,4.60
2019-05-17T20:55:33.680Z,3.95
2019-05-17T21:00:36.110Z,4.67
2019-05-17T21:05:38.464Z,4.45
2019-05-17T21:10:40.715Z,4.93
2019-05-17T21:15:47.759Z,7.30
2019-05-17T21:20:47.320Z,6.37
2019-05-17T21:25:49.619Z,3.83
2019-05-17T21:30:51.888Z,3.20
2019-05-17T21:35:54.534Z,4.65
2019-05-17T21:40:56.886Z,4.12
2019-05-17T21:46:04.012Z,3.70
2019-05-17T21:51:05.681Z,5.65
2019-05-17T21:56:08.004Z,4.97
2019-05-17T22:01:12.198Z,5.00
2019-05-17T22:06:14.635Z,3.77
2019-05-17T22:11:16.961Z,5.36
2019-05-17T22:16:20.148Z,8.23
2019-05-17T22:21:23.048Z,4.58
2019-05-17T22:26:25.526Z,6.40
2019-05-17T22:31:28.122Z,4.28
2019-05-17T22:36:30.434Z,6.07
2019-05-17T22:41:32.722Z,6.90
2019-05-17T22:46:36.469Z,5.47
2019-05-17T22:51:38.941Z,6.97
2019-05-17T22:56:41.259Z,12.30
2019-05-17T23:01:43.520Z,10.13
2019-05-17T23:06:45.834Z,8.93
2019-05-17T23:11:48.225Z,10.90
2019-05-17T23:16:52.095Z,9.76
2019-05-17T23:21:54.595Z,11.90
2019-05-17T23:26:56.948Z,11.18
2019-05-17T23:31:59.200Z,8.45
2019-05-17T23:37:01.563Z,6.60
2019-05-17T23:42:03.831Z,4.37
2019-05-17T23:47:07.534Z,5.12
2019-05-17T23:52:10.046Z,5.78
2019-05-17T23:57:12.389Z,6.70
